createdAt,value
2019-05-20T00:00:06.641Z,15.83
2019-05-20T00:02:35.764Z,15.82
2019-05-20T00:05:05.214Z,15.81
2019-05-20T00:07:34.427Z,15.72
2019-05-20T00:10:03.850Z,15.64
2019-05-20T00:12:33.063Z,15.58
2019-05-20T00:15:02.280Z,15.52
2019-05-20T00:17:31.443Z,15.50
2019-05-20T00:20:00.591Z,15.45
2019-05-20T00:22:29.753Z,15.42
2019-05-20T00:24:59.043Z,15.39
2019-05-20T00:27:28.260Z,15.36
2019-05-20T00:29:57.453Z,15.31
2019-05-20T00:32:40.314Z,15.34
2019-05-20T00:34:57.477Z,15.33
2019-05-20T00:37:26.714Z,15.30
2019-05-20T00:39:55.878Z,15.29
2019-05-20T00:42:24.982Z,15.24
2019-05-20T00:44:54.697Z,15.16
2019-05-20T00:47:23.887Z,15.10
2019-05-20T00:49:53.006Z,15.06
2019-05-20T00:52:22.259Z,15.04
2019-05-20T00:54:51.402Z,14.98
2019-05-20T00:57:20.523Z,14.87
2019-05-20T00:59:49.705Z,14.72
2019-05-20T01:02:19.258Z,14.72
2019-05-20T01:04:48.409Z,14.70
2019-05-20T01:07:17.562Z,14.63
2019-05-20T01:09:46.720Z,14.63
2019-05-20T01:12:15.883Z,14.68
2019-05-20T01:14:45.157Z,14.69
2019-05-20T01:17:14.713Z,14.71
2019-05-20T01:19:43.879Z,14.67
2019-05-20T01:22:13.059Z,14.68
2019-05-20T01:24:42.513Z,14.56
2019-05-20T01:27:11.862Z,14.47
2019-05-20T01:29:40.965Z,14.47
2019-05-20T01:32:10.174Z,14.48
2019-05-20T01:34:39.580Z,14.41
2019-05-20T01:37:08.706Z,14.41
2019-05-20T01:39:37.837Z,14.41
2019-05-20T01:42:07.173Z,14.38
2019-05-20T01:44:36.304Z,14.33
2019-05-20T01:47:07.005Z,14.33
2019-05-20T01:49:36.104Z,14.27
2019-05-20T01:52:05.289Z,14.21
2019-05-20T01:54:34.484Z,14.19
2019-05-20T01:57:03.648Z,14.15
2019-05-20T01:59:32.855Z,14.12
2019-05-20T02:02:02.041Z,14.08
2019-05-20T02:04:31.141Z,14.05
2019-05-20T02:07:00.454Z,14.00
2019-05-20T02:09:29.596Z,13.99
2019-05-20T02:11:58.757Z,14.01
2019-05-20T02:14:30.188Z,13.98
2019-05-20T02:17:02.509Z,13.99
2019-05-20T02:19:30.311Z,13.99
2019-05-20T02:21:59.878Z,13.92
2019-05-20T02:24:29.257Z,13.89
2019-05-20T02:26:58.470Z,13.85
2019-05-20T02:29:27.704Z,13.86
2019-05-20T02:31:57.137Z,13.84
2019-05-20T02:34:26.571Z,13.80
2019-05-20T02:36:55.722Z,13.73
2019-05-20T02:39:26.722Z,13.67
2019-05-20T02:41:55.760Z,13.72
2019-05-20T02:44:24.923Z,13.71
2019-05-20T02:46:54.108Z,13.75
2019-05-20T02:49:23.301Z,13.75
2019-05-20T02:51:52.518Z,13.74
2019-05-20T02:54:21.837Z,13.74
2019-05-20T02:56:51.037Z,13.67
2019-05-20T02:59:20.171Z,13.64
2019-05-20T03:01:49.367Z,13.68
2019-05-20T03:04:18.588Z,13.69
2019-05-20T03:06:47.751Z,13.67
2019-05-20T03:09:16.917Z,13.66
2019-05-20T03:11:46.113Z,13.66
2019-05-20T03:14:15.510Z,13.69
2019-05-20T03:16:44.732Z,13.75
2019-05-20T03:19:14.080Z,13.77
2019-05-20T03:21:43.247Z,13.75
2019-05-20T03:24:12.731Z,13.71
2019-05-20T03:26:42.128Z,13.73
2019-05-20T03:29:11.305Z,13.77
2019-05-20T03:31:40.561Z,13.79
2019-05-20T03:34:09.991Z,13.75
2019-05-20T03:36:39.340Z,13.73
2019-05-20T03:39:08.482Z,13.66
2019-05-20T03:41:37.659Z,13.66
2019-05-20T03:44:06.920Z,13.67
2019-05-20T03:46:36.088Z,13.74
2019-05-20T03:49:05.336Z,13.76
2019-05-20T03:51:34.488Z,13.79
2019-05-20T03:54:03.607Z,13.84
2019-05-20T03:56:33.066Z,13.87
2019-05-20T03:59:02.211Z,13.90
2019-05-20T04:01:31.498Z,13.92
2019-05-20T04:04:00.794Z,13.94
2019-05-20T04:06:30.115Z,13.92
2019-05-20T04:08:59.433Z,13.86
2019-05-20T04:11:28.619Z,13.92
2019-05-20T04:13:57.876Z,13.86
2019-05-20T04:16:27.267Z,13.93
2019-05-20T04:18:56.766Z,13.99
2019-05-20T04:21:25.899Z,13.98
2019-05-20T04:23:55.077Z,13.88
2019-05-20T04:26:24.256Z,13.91
2019-05-20T04:28:53.532Z,14.02
2019-05-20T04:31:22.694Z,14.06
2019-05-20T04:33:52.026Z,14.10
2019-05-20T04:36:21.171Z,14.12
2019-05-20T04:38:50.335Z,14.11
2019-05-20T04:41:19.652Z,14.05
2019-05-20T04:43:49.202Z,13.99
2019-05-20T04:46:18.588Z,14.03
2019-05-20T04:48:47.771Z,13.85
2019-05-20T04:51:16.978Z,13.91
2019-05-20T04:53:46.475Z,13.86
2019-05-20T04:56:16.227Z,13.90
2019-05-20T04:58:45.635Z,13.99
2019-05-20T05:01:14.785Z,13.90
2019-05-20T05:03:44.134Z,13.99
2019-05-20T05:06:13.455Z,14.03
2019-05-20T05:08:42.612Z,14.01
2019-05-20T05:11:11.759Z,14.11
2019-05-20T05:13:40.922Z,14.05
2019-05-20T05:16:10.385Z,14.04
2019-05-20T05:18:40.018Z,14.02
2019-05-20T05:21:09.321Z,14.01
2019-05-20T05:23:38.635Z,14.08
2019-05-20T05:26:07.942Z,14.29
2019-05-20T05:28:37.455Z,14.33
2019-05-20T05:31:06.669Z,14.56
2019-05-20T05:33:35.853Z,14.56
2019-05-20T05:36:04.958Z,14.61
2019-05-20T05:38:34.462Z,14.63
2019-05-20T05:41:03.650Z,14.39
2019-05-20T05:43:32.728Z,14.62
2019-05-20T05:46:02.034Z,14.62
2019-05-20T05:48:31.176Z,14.61
2019-05-20T05:51:00.325Z,14.71
2019-05-20T05:53:29.653Z,14.79
2019-05-20T05:55:58.822Z,14.70
2019-05-20T05:58:28.014Z,14.70
2019-05-20T06:00:57.198Z,14.81
2019-05-20T06:03:26.413Z,14.81
2019-05-20T06:06:10.721Z,15.04
2019-05-20T06:08:26.475Z,15.27
2019-05-20T06:10:55.667Z,15.54
2019-05-20T06:13:24.882Z,15.40
2019-05-20T06:15:54.750Z,15.57
2019-05-20T06:18:23.908Z,15.14
2019-05-20T06:20:53.078Z,15.60
2019-05-20T06:23:22.257Z,15.56
2019-05-20T06:25:51.476Z,15.61
2019-05-20T06:28:20.664Z,15.26
2019-05-20T06:30:49.880Z,15.22
2019-05-20T06:33:19.015Z,15.22
2019-05-20T06:35:48.367Z,15.44
2019-05-20T06:38:38.647Z,15.65
2019-05-20T06:41:08.283Z,15.20
2019-05-20T06:43:37.428Z,14.98
2019-05-20T06:46:06.605Z,15.13
2019-05-20T06:48:35.950Z,15.08
2019-05-20T06:51:05.088Z,15.38
2019-05-20T06:53:34.462Z,15.35
2019-05-20T06:56:03.629Z,15.40
2019-05-20T06:58:32.770Z,15.40
2019-05-20T07:01:02.263Z,15.55
2019-05-20T07:03:31.811Z,15.54
2019-05-20T07:06:01.109Z,15.36
2019-05-20T07:08:30.314Z,15.57
2019-05-20T07:10:59.445Z,15.24
2019-05-20T07:13:28.745Z,15.31
2019-05-20T07:15:57.947Z,15.59
2019-05-20T07:18:27.599Z,15.81
2019-05-20T07:20:56.833Z,15.76
2019-05-20T07:23:26.027Z,15.33
2019-05-20T07:25:55.240Z,15.49
2019-05-20T07:28:24.459Z,15.36
2019-05-20T07:30:53.777Z,15.32
2019-05-20T07:33:23.114Z,15.23
2019-05-20T07:35:52.567Z,15.88
2019-05-20T07:38:21.812Z,15.71
2019-05-20T07:40:51.039Z,15.77
2019-05-20T07:43:20.634Z,15.87
2019-05-20T07:45:49.971Z,16.06
2019-05-20T07:48:19.498Z,15.75
2019-05-20T07:50:49.349Z,16.02
2019-05-20T07:53:19.641Z,15.92
2019-05-20T07:56:00.723Z,15.47
2019-05-20T07:58:33.832Z,15.37
2019-05-20T08:01:03.245Z,15.74
2019-05-20T08:03:32.495Z,15.76
2019-05-20T08:06:01.682Z,15.78
2019-05-20T08:08:30.953Z,15.61
2019-05-20T08:11:00.056Z,15.62
2019-05-20T08:13:29.361Z,15.71
2019-05-20T08:15:58.537Z,15.73
2019-05-20T08:18:27.885Z,15.91
2019-05-20T08:20:57.174Z,15.72
2019-05-20T08:23:26.464Z,15.76
2019-05-20T08:25:55.627Z,15.72
2019-05-20T08:28:24.905Z,15.26
2019-05-20T08:30:54.046Z,15.24
2019-05-20T08:33:23.183Z,15.36
2019-05-20T08:35:52.586Z,15.27
2019-05-20T08:38:21.729Z,15.24
2019-05-20T08:40:51.002Z,15.31
2019-05-20T08:43:20.227Z,15.46
2019-05-20T08:45:49.398Z,15.69
2019-05-20T08:48:18.489Z,15.97
2019-05-20T08:50:47.927Z,16.16
2019-05-20T08:53:17.052Z,16.38
2019-05-20T08:55:46.283Z,16.27
2019-05-20T08:58:15.937Z,16.33
2019-05-20T09:00:45.197Z,16.26
2019-05-20T09:03:14.426Z,16.21
2019-05-20T09:05:43.677Z,15.89
2019-05-20T09:08:12.811Z,15.51
2019-05-20T09:10:41.982Z,15.65
2019-05-20T09:13:11.108Z,15.66
2019-05-20T09:15:40.512Z,15.73
2019-05-20T09:18:09.832Z,15.73
2019-05-20T09:20:39.001Z,15.53
2019-05-20T09:23:08.234Z,15.53
2019-05-20T09:25:37.465Z,15.53
2019-05-20T09:28:06.621Z,15.53
2019-05-20T09:30:35.810Z,15.53
2019-05-20T09:33:04.978Z,15.59
2019-05-20T09:35:34.292Z,15.61
2019-05-20T09:38:18.304Z,15.77
2019-05-20T09:40:39.471Z,15.84
2019-05-20T09:43:08.795Z,15.98
2019-05-20T09:45:37.947Z,15.98
2019-05-20T09:48:08.551Z,16.10
2019-05-20T09:50:37.677Z,16.08
2019-05-20T09:53:07.741Z,16.11
2019-05-20T09:55:37.597Z,16.19
2019-05-20T09:58:07.475Z,16.37
2019-05-20T10:00:37.001Z,16.53
2019-05-20T10:03:07.797Z,16.62
2019-05-20T10:05:37.840Z,16.80
2019-05-20T10:08:07.541Z,16.87
2019-05-20T10:10:37.021Z,16.84
2019-05-20T10:13:06.961Z,16.79
2019-05-20T10:15:36.496Z,16.66
2019-05-20T10:18:06.024Z,16.64
2019-05-20T10:20:35.186Z,16.61
2019-05-20T10:23:04.346Z,16.76
2019-05-20T10:25:33.646Z,16.90
2019-05-20T10:28:02.813Z,17.04
2019-05-20T10:30:31.951Z,16.94
2019-05-20T10:33:01.087Z,16.86
2019-05-20T10:35:30.220Z,16.60
2019-05-20T10:37:59.449Z,16.69
2019-05-20T10:40:28.753Z,16.44
2019-05-20T10:42:57.907Z,16.42
2019-05-20T10:45:27.229Z,16.47
2019-05-20T10:47:56.579Z,16.40
2019-05-20T10:50:25.908Z,16.33
2019-05-20T10:52:55.193Z,16.20
2019-05-20T10:55:24.411Z,16.18
2019-05-20T10:57:53.599Z,16.02
2019-05-20T11:00:22.964Z,16.09
2019-05-20T11:02:52.172Z,16.04
2019-05-20T11:05:21.538Z,16.01
2019-05-20T11:07:50.860Z,15.98
2019-05-20T11:10:20.441Z,15.91
2019-05-20T11:12:49.815Z,15.97
2019-05-20T11:15:19.062Z,15.95
2019-05-20T11:17:48.213Z,16.05
2019-05-20T11:20:17.650Z,15.97
2019-05-20T11:22:47.162Z,16.10
2019-05-20T11:25:17.148Z,16.08
2019-05-20T11:27:46.285Z,16.15
2019-05-20T11:30:15.658Z,16.31
2019-05-20T11:32:44.906Z,16.54
2019-05-20T11:35:14.990Z,16.67
2019-05-20T11:37:44.315Z,16.74
2019-05-20T11:40:14.575Z,16.67
2019-05-20T11:42:43.986Z,16.70
2019-05-20T11:45:14.447Z,16.56
2019-05-20T11:47:43.686Z,16.68
2019-05-20T11:50:14.612Z,16.51
2019-05-20T11:52:43.875Z,16.41
2019-05-20T11:55:13.677Z,16.53
2019-05-20T11:57:42.848Z,16.56
2019-05-20T12:00:12.729Z,16.92
2019-05-20T12:02:41.900Z,16.79
2019-05-20T12:05:11.970Z,16.73
2019-05-20T12:07:41.110Z,16.96
2019-05-20T12:10:11.229Z,16.97
2019-05-20T12:12:40.428Z,17.01
2019-05-20T12:15:10.154Z,16.97
2019-05-20T12:17:39.331Z,17.13
2019-05-20T12:20:11.776Z,17.27
2019-05-20T12:22:40.379Z,17.08
2019-05-20T12:25:10.063Z,17.05
2019-05-20T12:27:39.266Z,17.13
2019-05-20T12:30:10.295Z,17.25
2019-05-20T12:32:39.537Z,17.51
2019-05-20T12:35:09.491Z,17.38
2019-05-20T12:37:38.890Z,17.31
2019-05-20T12:40:09.019Z,17.39
2019-05-20T12:42:38.449Z,17.80
2019-05-20T12:45:08.852Z,17.92
2019-05-20T12:47:38.016Z,17.80
2019-05-20T12:50:08.112Z,17.73
2019-05-20T12:52:37.543Z,17.81
2019-05-20T12:55:09.486Z,17.78
2019-05-20T12:57:37.828Z,17.86
2019-05-20T13:00:07.718Z,17.56
2019-05-20T13:02:36.927Z,17.95
2019-05-20T13:05:06.488Z,17.58
2019-05-20T13:07:35.990Z,17.48
2019-05-20T13:10:26.073Z,17.35
2019-05-20T13:12:37.151Z,17.20
2019-05-20T13:15:06.668Z,17.31
2019-05-20T13:17:36.231Z,17.36
2019-05-20T13:20:05.801Z,17.17
2019-05-20T13:22:34.992Z,17.39
2019-05-20T13:25:04.199Z,17.16
2019-05-20T13:27:33.457Z,17.23
2019-05-20T13:30:02.620Z,17.28
2019-05-20T13:32:31.863Z,17.33
2019-05-20T13:35:01.076Z,17.59
2019-05-20T13:37:30.346Z,17.57
2019-05-20T13:40:02.831Z,17.47
2019-05-20T13:42:30.402Z,17.56
2019-05-20T13:44:59.546Z,17.27
2019-05-20T13:47:28.736Z,17.52
2019-05-20T13:49:58.102Z,17.37
2019-05-20T13:52:27.303Z,17.68
2019-05-20T13:54:56.457Z,17.71
2019-05-20T13:57:25.635Z,17.99
2019-05-20T13:59:54.881Z,17.99
2019-05-20T14:02:24.227Z,17.96
2019-05-20T14:04:53.415Z,17.86
2019-05-20T14:07:22.598Z,17.79
2019-05-20T14:09:51.916Z,17.50
2019-05-20T14:12:21.344Z,17.96
2019-05-20T14:14:50.738Z,17.66
2019-05-20T14:17:20.115Z,17.93
2019-05-20T14:19:49.611Z,17.99
2019-05-20T14:22:18.852Z,18.46
2019-05-20T14:24:48.090Z,18.68
2019-05-20T14:27:17.330Z,18.28
2019-05-20T14:29:46.715Z,18.26
2019-05-20T14:32:15.873Z,18.22
2019-05-20T14:34:45.053Z,18.08
2019-05-20T14:37:14.225Z,18.28
2019-05-20T14:39:43.588Z,17.92
2019-05-20T14:42:12.880Z,18.30
2019-05-20T14:44:42.213Z,18.35
2019-05-20T14:47:11.387Z,18.32
2019-05-20T14:49:40.547Z,17.80
2019-05-20T14:52:10.088Z,17.76
2019-05-20T14:54:39.435Z,17.54
2019-05-20T14:57:08.842Z,17.52
2019-05-20T14:59:38.009Z,17.35
2019-05-20T15:02:07.187Z,17.37
2019-05-20T15:04:37.148Z,17.21
2019-05-20T15:07:06.427Z,17.13
2019-05-20T15:09:35.619Z,17.01
2019-05-20T15:12:04.958Z,16.95
2019-05-20T15:14:34.108Z,16.98
2019-05-20T15:17:03.468Z,17.11
2019-05-20T15:19:32.899Z,17.31
2019-05-20T15:22:02.529Z,17.40
2019-05-20T15:24:31.758Z,17.39
2019-05-20T15:27:01.081Z,17.47
2019-05-20T15:29:30.340Z,17.34
2019-05-20T15:31:59.745Z,17.01
2019-05-20T15:34:29.220Z,17.00
2019-05-20T15:36:58.452Z,16.67
2019-05-20T15:39:27.655Z,16.71
2019-05-20T15:41:57.235Z,16.84
2019-05-20T15:44:26.809Z,16.62
2019-05-20T15:46:56.009Z,16.62
2019-05-20T15:49:25.347Z,16.72
2019-05-20T15:51:54.666Z,16.59
2019-05-20T15:54:23.860Z,16.47
2019-05-20T15:56:53.759Z,16.24
2019-05-20T15:59:22.931Z,16.23
2019-05-20T16:01:52.230Z,16.27
2019-05-20T16:04:21.518Z,16.34
2019-05-20T16:06:50.662Z,16.24
2019-05-20T16:09:20.064Z,15.99
2019-05-20T16:11:49.431Z,15.92
2019-05-20T16:14:18.841Z,15.84
2019-05-20T16:16:48.123Z,15.82
2019-05-20T16:19:17.330Z,15.83
2019-05-20T16:21:47.879Z,15.78
2019-05-20T16:24:17.259Z,15.76
2019-05-20T16:26:46.695Z,15.71
2019-05-20T16:29:15.971Z,15.71
2019-05-20T16:31:45.186Z,15.80
2019-05-20T16:34:14.440Z,15.96
2019-05-20T16:36:44.091Z,15.98
2019-05-20T16:39:13.524Z,15.89
2019-05-20T16:41:42.861Z,15.94
2019-05-20T16:44:12.130Z,15.72
2019-05-20T16:46:41.368Z,15.76
2019-05-20T16:49:10.692Z,15.66
2019-05-20T16:51:39.993Z,15.58
2019-05-20T16:54:09.191Z,15.45
2019-05-20T16:56:38.441Z,15.33
2019-05-20T16:59:07.647Z,15.33
2019-05-20T17:01:45.974Z,15.35
2019-05-20T17:04:07.835Z,15.42
2019-05-20T17:06:37.080Z,15.45
2019-05-20T17:09:06.766Z,15.34
2019-05-20T17:11:36.032Z,15.37
2019-05-20T17:14:05.180Z,15.36
2019-05-20T17:16:34.677Z,15.34
2019-05-20T17:19:03.884Z,15.32
2019-05-20T17:21:33.155Z,15.32
2019-05-20T17:24:02.375Z,15.34
2019-05-20T17:26:31.717Z,15.37
2019-05-20T17:29:00.990Z,15.31
2019-05-20T17:31:30.976Z,15.20
2019-05-20T17:34:07.071Z,15.12
2019-05-20T17:36:36.414Z,15.16
2019-05-20T17:39:07.153Z,15.18
2019-05-20T17:41:36.342Z,15.13
2019-05-20T17:44:05.587Z,15.09
2019-05-20T17:46:34.784Z,15.13
2019-05-20T17:49:03.984Z,15.10
2019-05-20T17:51:33.268Z,15.09
2019-05-20T17:54:02.480Z,15.05
2019-05-20T17:56:31.660Z,15.05
2019-05-20T17:59:00.905Z,15.08
2019-05-20T18:01:30.331Z,15.07
2019-05-20T18:03:59.613Z,15.09
2019-05-20T18:06:28.940Z,14.99
2019-05-20T18:09:00.355Z,15.06
2019-05-20T18:11:30.903Z,15.08
2019-05-20T18:14:00.400Z,15.10
2019-05-20T18:16:29.918Z,15.12
2019-05-20T18:18:59.136Z,15.06
2019-05-20T18:21:28.431Z,15.09
2019-05-20T18:23:57.679Z,15.05
2019-05-20T18:26:26.867Z,15.01
2019-05-20T18:28:56.212Z,14.96
2019-05-20T18:31:32.570Z,14.86
2019-05-20T18:33:56.587Z,14.88
2019-05-20T18:36:26.027Z,14.91
2019-05-20T18:38:55.461Z,14.84
2019-05-20T18:41:24.721Z,14.85
2019-05-20T18:43:53.984Z,14.84
2019-05-20T18:46:23.262Z,14.77
2019-05-20T18:48:52.529Z,14.79
2019-05-20T18:51:21.759Z,14.76
2019-05-20T18:53:50.995Z,14.78
2019-05-20T18:56:20.479Z,14.72
2019-05-20T18:58:49.668Z,14.55
2019-05-20T19:01:19.712Z,14.52
2019-05-20T19:03:49.077Z,14.55
2019-05-20T19:06:18.248Z,14.53
2019-05-20T19:08:47.432Z,14.53
2019-05-20T19:11:16.736Z,14.56
2019-05-20T19:13:46.294Z,14.46
2019-05-20T19:16:15.871Z,14.45
2019-05-20T19:18:45.337Z,14.45
2019-05-20T19:21:14.578Z,14.42
2019-05-20T19:23:43.778Z,14.45
2019-05-20T19:26:24.348Z,14.40
2019-05-20T19:28:44.231Z,14.43
2019-05-20T19:31:13.903Z,14.47
2019-05-20T19:33:43.178Z,14.41
2019-05-20T19:36:13.971Z,14.43
2019-05-20T19:38:43.244Z,14.38
2019-05-20T19:41:12.466Z,14.38
2019-05-20T19:43:41.895Z,14.41
2019-05-20T19:46:11.410Z,14.34
2019-05-20T19:48:40.848Z,14.28
2019-05-20T19:51:10.302Z,14.28
2019-05-20T19:53:39.956Z,14.22
2019-05-20T19:56:09.294Z,14.25
2019-05-20T19:58:38.466Z,14.17
2019-05-20T20:01:07.784Z,14.10
2019-05-20T20:03:37.089Z,14.10
2019-05-20T20:06:06.601Z,13.94
2019-05-20T20:08:36.408Z,13.92
2019-05-20T20:11:06.011Z,13.91
2019-05-20T20:13:35.315Z,13.85
2019-05-20T20:16:05.130Z,13.83
2019-05-20T20:18:34.509Z,13.69
2019-05-20T20:21:03.885Z,13.67
2019-05-20T20:23:33.082Z,13.62
2019-05-20T20:26:02.653Z,13.62
2019-05-20T20:28:31.959Z,13.61
2019-05-20T20:31:01.335Z,13.57
2019-05-20T20:33:30.618Z,13.54
2019-05-20T20:35:59.852Z,13.53
2019-05-20T20:38:29.052Z,13.52
2019-05-20T20:40:58.344Z,13.47
2019-05-20T20:43:27.685Z,13.47
2019-05-20T20:45:56.887Z,13.46
2019-05-20T20:48:26.093Z,13.47
2019-05-20T20:50:55.394Z,13.47
2019-05-20T20:53:24.624Z,13.47
2019-05-20T20:55:53.869Z,13.50
2019-05-20T20:58:23.111Z,13.44
2019-05-20T21:00:52.383Z,13.50
2019-05-20T21:03:21.600Z,13.49
2019-05-20T21:05:50.794Z,13.47
2019-05-20T21:08:20.040Z,13.47
2019-05-20T21:10:49.224Z,13.47
2019-05-20T21:13:18.470Z,13.52
2019-05-20T21:15:47.643Z,13.48
2019-05-20T21:18:16.800Z,13.48
2019-05-20T21:20:46.156Z,13.41
2019-05-20T21:23:16.276Z,13.40
2019-05-20T21:25:45.518Z,13.42
2019-05-20T21:28:14.752Z,13.36
2019-05-20T21:30:44.106Z,13.39
2019-05-20T21:33:13.430Z,13.45
2019-05-20T21:35:45.292Z,13.45
2019-05-20T21:38:13.640Z,13.46
2019-05-20T21:40:42.822Z,13.47
2019-05-20T21:43:12.071Z,13.39
2019-05-20T21:45:41.527Z,13.40
2019-05-20T21:48:10.950Z,13.41
2019-05-20T21:50:40.116Z,13.42
2019-05-20T21:53:09.329Z,13.40
2019-05-20T21:55:38.764Z,13.32
2019-05-20T21:58:07.954Z,13.33
2019-05-20T22:00:48.663Z,13.30
2019-05-20T22:03:24.535Z,13.29
2019-05-20T22:05:49.821Z,13.27
2019-05-20T22:08:19.081Z,13.25
2019-05-20T22:10:48.313Z,13.29
2019-05-20T22:13:17.610Z,13.29
2019-05-20T22:15:46.861Z,13.28
2019-05-20T22:18:16.040Z,13.22
2019-05-20T22:20:45.246Z,13.21
2019-05-20T22:23:29.089Z,13.18
2019-05-20T22:25:58.247Z,13.22
2019-05-20T22:28:27.555Z,13.23
2019-05-20T22:30:56.861Z,13.25
2019-05-20T22:33:40.227Z,13.26
2019-05-20T22:35:57.129Z,13.20
2019-05-20T22:38:26.397Z,13.23
2019-05-20T22:40:55.639Z,13.17
2019-05-20T22:43:24.808Z,13.19
2019-05-20T22:45:54.115Z,13.22
2019-05-20T22:48:23.791Z,13.23
2019-05-20T22:50:53.235Z,13.20
2019-05-20T22:53:22.422Z,13.18
2019-05-20T22:55:51.660Z,13.15
2019-05-20T22:58:20.970Z,13.18
2019-05-20T23:00:50.215Z,13.20
2019-05-20T23:03:19.679Z,13.24
2019-05-20T23:05:48.846Z,13.19
2019-05-20T23:08:18.000Z,13.16
2019-05-20T23:10:47.167Z,13.17
2019-05-20T23:13:16.426Z,13.19
2019-05-20T23:15:45.614Z,13.20
2019-05-20T23:18:14.773Z,13.21
2019-05-20T23:20:44.025Z,13.19
2019-05-20T23:23:13.210Z,13.21
2019-05-20T23:25:42.361Z,13.22
2019-05-20T23:28:11.531Z,13.27
2019-05-20T23:30:40.812Z,13.23
2019-05-20T23:33:10.046Z,13.28
2019-05-20T23:35:39.209Z,13.22
2019-05-20T23:38:08.405Z,13.24
2019-05-20T23:40:37.506Z,13.26
2019-05-20T23:43:06.705Z,13.18
2019-05-20T23:45:36.249Z,13.20
2019-05-20T23:48:05.412Z,13.25
2019-05-20T23:50:34.560Z,13.22
2019-05-20T23:53:03.857Z,13.22
2019-05-20T23:55:33.004Z,13.24
2019-05-20T23:58:02.198Z,13.25
